createdAt,value
2018-03-27T00:00:57.917Z,32.50
2018-03-27T00:01:57.915Z,32.50
2018-03-27T00:02:57.912Z,31.50
2018-03-27T00:03:57.922Z,34.60
2018-03-27T00:04:57.970Z,32.70
2018-03-27T00:05:57.899Z,34.20
2018-03-27T00:06:57.912Z,31.40
2018-03-27T00:07:57.910Z,33.20
2018-03-27T00:08:57.910Z,33.40
2018-03-27T00:09:57.906Z,34.30
2018-03-27T00:10:57.903Z,34.40
2018-03-27T00:11:57.906Z,35.20
2018-03-27T00:12:57.916Z,34.60
2018-03-27T00:13:58.457Z,35.10
2018-03-27T00:14:57.909Z,34.10
2018-03-27T00:15:57.910Z,35.30
2018-03-27T00:16:57.905Z,34.90
2018-03-27T00:17:57.982Z,35.10
2018-03-27T00:18:57.896Z,34.40
2018-03-27T00:19:57.905Z,34.70
2018-03-27T00:20:57.906Z,35.20
2018-03-27T00:21:57.905Z,35.10
2018-03-27T00:22:57.978Z,35.00
2018-03-27T00:23:57.917Z,36.40
2018-03-27T00:24:57.905Z,36.70
2018-03-27T00:25:57.902Z,35.90
2018-03-27T00:26:57.903Z,36.20
2018-03-27T00:27:57.916Z,35.10
2018-03-27T00:28:57.903Z,37.30
2018-03-27T00:29:57.899Z,36.30
2018-03-27T00:30:57.902Z,36.00
2018-03-27T00:31:57.913Z,36.90
2018-03-27T00:32:57.904Z,37.10
2018-03-27T00:33:57.901Z,36.20
2018-03-27T00:34:57.906Z,35.60
2018-03-27T00:35:57.922Z,37.30
2018-03-27T00:36:57.889Z,36.20
2018-03-27T00:37:57.901Z,35.80
2018-03-27T00:38:57.894Z,35.60
2018-03-27T00:39:57.900Z,36.50
2018-03-27T00:40:57.903Z,36.20
2018-03-27T00:41:57.895Z,37.00
2018-03-27T00:42:57.902Z,37.10
2018-03-27T00:43:57.897Z,36.70
2018-03-27T00:44:57.898Z,37.90
2018-03-27T00:45:57.902Z,37.00
2018-03-27T00:46:57.899Z,35.60
2018-03-27T00:47:57.895Z,37.70
2018-03-27T00:48:58.467Z,37.20
2018-03-27T00:49:57.901Z,37.80
2018-03-27T00:50:57.904Z,36.90
2018-03-27T00:51:57.898Z,36.80
2018-03-27T00:52:57.895Z,37.20
2018-03-27T00:53:57.890Z,36.50
2018-03-27T00:54:57.901Z,36.60
2018-03-27T00:55:57.894Z,36.60
2018-03-27T00:56:57.890Z,37.10
2018-03-27T00:57:57.895Z,36.50
2018-03-27T00:58:57.902Z,36.10
2018-03-27T00:59:57.890Z,37.00
2018-03-27T01:00:57.894Z,37.60
2018-03-27T01:01:57.901Z,35.60
2018-03-27T01:02:57.894Z,37.70
2018-03-27T01:03:57.893Z,38.20
2018-03-27T01:04:57.898Z,34.70
2018-03-27T01:05:57.899Z,35.70
2018-03-27T01:06:57.895Z,36.90
2018-03-27T01:07:57.888Z,37.40
2018-03-27T01:08:57.909Z,37.40
2018-03-27T01:09:57.881Z,36.30
2018-03-27T01:10:57.888Z,35.70
2018-03-27T01:11:57.885Z,36.00
2018-03-27T01:12:57.890Z,35.10
2018-03-27T01:13:57.881Z,37.50
2018-03-27T01:14:57.898Z,35.70
2018-03-27T01:15:57.893Z,35.90
2018-03-27T01:16:57.887Z,36.60
2018-03-27T01:17:57.892Z,36.90
2018-03-27T01:18:57.892Z,37.60
2018-03-27T01:19:57.955Z,36.80
2018-03-27T01:20:57.898Z,37.20
2018-03-27T01:21:57.890Z,37.80
2018-03-27T01:22:57.894Z,38.00
2018-03-27T01:23:57.892Z,37.40
2018-03-27T01:24:57.895Z,38.30
2018-03-27T01:25:57.887Z,38.20
2018-03-27T01:26:57.884Z,38.60
2018-03-27T01:27:57.888Z,39.40
2018-03-27T01:28:57.891Z,40.30
2018-03-27T01:29:57.887Z,39.10
2018-03-27T01:30:57.887Z,39.00
2018-03-27T01:31:57.883Z,40.70
2018-03-27T01:32:57.898Z,40.20
2018-03-27T01:33:57.889Z,40.90
2018-03-27T01:34:57.880Z,40.70
2018-03-27T01:35:57.887Z,42.90
2018-03-27T01:36:57.885Z,41.10
2018-03-27T01:37:57.944Z,41.60
2018-03-27T01:38:57.887Z,40.70
2018-03-27T01:39:57.889Z,41.90
2018-03-27T01:40:57.885Z,42.00
2018-03-27T01:41:57.901Z,42.50
2018-03-27T01:42:57.883Z,42.90
2018-03-27T01:43:57.894Z,44.40
2018-03-27T01:44:57.899Z,44.00
2018-03-27T01:45:57.886Z,42.40
2018-03-27T01:46:57.887Z,44.90
2018-03-27T01:47:57.889Z,43.60
2018-03-27T01:48:57.886Z,43.00
2018-03-27T01:49:57.885Z,43.00
2018-03-27T01:50:57.886Z,44.60
2018-03-27T01:51:57.886Z,43.80
2018-03-27T01:52:57.891Z,43.70
2018-03-27T01:53:57.886Z,45.60
2018-03-27T01:54:57.886Z,45.10
2018-03-27T01:55:57.883Z,44.90
2018-03-27T01:56:57.884Z,44.10
2018-03-27T01:57:57.895Z,45.60
2018-03-27T01:58:57.931Z,44.80
2018-03-27T01:59:57.888Z,46.20
2018-03-27T02:00:57.881Z,46.80
2018-03-27T02:01:57.886Z,45.20
2018-03-27T02:02:57.885Z,46.50
2018-03-27T02:03:57.906Z,45.40
2018-03-27T02:04:57.887Z,45.30
2018-03-27T02:05:57.880Z,45.80
2018-03-27T02:06:57.890Z,45.60
2018-03-27T02:07:57.886Z,45.70
2018-03-27T02:08:57.874Z,47.20
2018-03-27T02:09:57.875Z,45.40
2018-03-27T02:10:57.879Z,46.90
2018-03-27T02:11:57.882Z,45.20
2018-03-27T02:12:57.888Z,47.70
2018-03-27T02:13:57.884Z,46.90
2018-03-27T02:14:57.889Z,48.20
2018-03-27T02:15:57.904Z,47.70
2018-03-27T02:16:57.901Z,48.20
2018-03-27T02:17:57.881Z,48.00
2018-03-27T02:18:57.881Z,47.60
2018-03-27T02:19:57.888Z,48.30
2018-03-27T02:20:57.881Z,48.50
2018-03-27T02:21:57.886Z,46.20
2018-03-27T02:22:57.869Z,47.40
2018-03-27T02:23:57.881Z,46.90
2018-03-27T02:24:57.885Z,48.80
2018-03-27T02:25:57.879Z,48.30
2018-03-27T02:26:57.884Z,48.30
2018-03-27T02:27:57.885Z,46.50
2018-03-27T02:28:57.880Z,47.50
2018-03-27T02:29:57.973Z,47.40
2018-03-27T02:30:57.885Z,48.70
2018-03-27T02:31:57.883Z,48.70
2018-03-27T02:32:57.949Z,47.20
2018-03-27T02:33:57.880Z,48.70
2018-03-27T02:34:57.881Z,48.50
2018-03-27T02:35:57.880Z,51.60
2018-03-27T02:36:57.876Z,47.50
2018-03-27T02:37:57.876Z,49.80
2018-03-27T02:38:57.881Z,47.80
2018-03-27T02:39:57.878Z,46.70
2018-03-27T02:40:57.883Z,46.90
2018-03-27T02:41:57.884Z,46.90
2018-03-27T02:42:57.884Z,48.50
2018-03-27T02:43:57.881Z,48.90
2018-03-27T02:44:57.881Z,47.70
2018-03-27T02:45:57.871Z,47.70
2018-03-27T02:46:57.891Z,49.70
2018-03-27T02:47:57.881Z,49.40
2018-03-27T02:48:57.876Z,48.90
2018-03-27T02:49:57.879Z,47.30
2018-03-27T02:50:57.882Z,48.40
2018-03-27T02:51:57.889Z,49.10
2018-03-27T02:52:58.495Z,47.80
2018-03-27T02:53:57.880Z,48.90
2018-03-27T02:54:57.902Z,47.80
2018-03-27T02:55:57.883Z,48.40
2018-03-27T02:56:57.880Z,47.10
2018-03-27T02:57:57.886Z,48.70
2018-03-27T02:58:57.868Z,47.50
2018-03-27T02:59:57.877Z,47.00
2018-03-27T03:00:57.979Z,47.90
2018-03-27T03:01:57.885Z,48.90
2018-03-27T03:02:57.879Z,47.80
2018-03-27T03:03:57.878Z,49.10
2018-03-27T03:04:57.877Z,49.20
2018-03-27T03:05:57.895Z,49.90
2018-03-27T03:06:57.879Z,47.60
2018-03-27T03:07:57.880Z,48.40
2018-03-27T03:08:57.884Z,49.80
2018-03-27T03:09:57.868Z,46.90
2018-03-27T03:10:57.871Z,47.60
2018-03-27T03:11:57.870Z,47.00
2018-03-27T03:12:57.882Z,45.50
2018-03-27T03:13:57.877Z,46.30
2018-03-27T03:14:57.874Z,47.60
2018-03-27T03:15:57.876Z,49.00
2018-03-27T03:16:57.873Z,48.70
2018-03-27T03:17:57.872Z,48.20
2018-03-27T03:18:57.862Z,47.40
2018-03-27T03:19:57.874Z,52.40
2018-03-27T03:20:57.879Z,50.70
2018-03-27T03:21:57.860Z,51.50
2018-03-27T03:22:57.894Z,49.60
2018-03-27T03:23:57.872Z,51.20
2018-03-27T03:24:57.873Z,49.90
2018-03-27T03:25:57.872Z,51.80
2018-03-27T03:26:57.948Z,49.40
2018-03-27T03:27:57.873Z,50.30
2018-03-27T03:28:57.873Z,49.50
2018-03-27T03:29:57.876Z,51.60
2018-03-27T03:30:57.872Z,51.00
2018-03-27T03:31:57.879Z,49.80
2018-03-27T03:32:57.868Z,50.50
2018-03-27T03:33:57.888Z,50.70
2018-03-27T03:34:57.871Z,48.30
2018-03-27T03:35:57.970Z,48.20
2018-03-27T03:36:57.871Z,49.90
2018-03-27T03:37:57.867Z,49.90
2018-03-27T03:38:57.873Z,51.40
2018-03-27T03:39:57.877Z,49.70
2018-03-27T03:40:57.868Z,51.20
2018-03-27T03:41:57.860Z,50.80
2018-03-27T03:42:57.864Z,53.00
2018-03-27T03:43:57.870Z,52.30
2018-03-27T03:44:57.866Z,50.60
2018-03-27T03:45:57.866Z,48.90
2018-03-27T03:46:57.873Z,48.70
2018-03-27T03:47:57.863Z,49.60
2018-03-27T03:48:57.867Z,48.00
2018-03-27T03:49:57.880Z,49.90
2018-03-27T03:50:57.865Z,49.20
2018-03-27T03:51:57.858Z,50.40
2018-03-27T03:52:57.864Z,47.10
2018-03-27T03:53:57.866Z,51.30
2018-03-27T03:54:57.868Z,49.70
2018-03-27T03:55:57.860Z,48.00
2018-03-27T03:56:57.873Z,48.90
2018-03-27T03:57:57.869Z,47.50
2018-03-27T03:58:57.865Z,47.50
2018-03-27T03:59:57.870Z,46.90
2018-03-27T04:00:57.857Z,47.20
2018-03-27T04:01:57.864Z,49.50
2018-03-27T04:02:57.855Z,48.30
2018-03-27T04:03:57.861Z,50.30
2018-03-27T04:04:57.860Z,47.90
2018-03-27T04:05:57.854Z,48.70
2018-03-27T04:06:57.861Z,49.30
2018-03-27T04:07:57.865Z,50.80
2018-03-27T04:08:57.859Z,48.60
2018-03-27T04:09:57.858Z,47.60
2018-03-27T04:10:57.955Z,49.50
2018-03-27T04:11:57.855Z,49.10
2018-03-27T04:12:57.851Z,49.80
2018-03-27T04:13:57.845Z,48.30
2018-03-27T04:14:57.852Z,48.30
2018-03-27T04:15:57.858Z,48.10
2018-03-27T04:16:57.855Z,48.30
2018-03-27T04:17:57.850Z,49.90
2018-03-27T04:18:57.851Z,50.60
2018-03-27T04:19:57.855Z,50.40
2018-03-27T04:20:57.840Z,50.30
2018-03-27T04:21:57.846Z,49.30
2018-03-27T04:22:57.841Z,49.40
2018-03-27T04:23:57.853Z,50.20
2018-03-27T04:24:57.842Z,52.60
2018-03-27T04:25:57.838Z,52.00
2018-03-27T04:26:57.860Z,52.30
2018-03-27T04:27:57.846Z,51.80
2018-03-27T04:28:57.844Z,49.00
2018-03-27T04:29:57.843Z,50.40
2018-03-27T04:30:57.836Z,51.10
2018-03-27T04:31:57.843Z,51.60
2018-03-27T04:32:57.839Z,48.60
2018-03-27T04:33:57.846Z,49.10
2018-03-27T04:34:57.838Z,50.70
2018-03-27T04:35:57.830Z,49.30
2018-03-27T04:36:57.824Z,51.00
2018-03-27T04:37:57.825Z,52.80
2018-03-27T04:38:57.830Z,50.90
2018-03-27T04:39:57.831Z,50.50
2018-03-27T04:40:57.828Z,49.60
2018-03-27T04:41:57.936Z,52.70
2018-03-27T04:42:57.822Z,51.10
2018-03-27T04:43:57.831Z,52.00
2018-03-27T04:44:57.827Z,52.30
2018-03-27T04:45:57.817Z,51.00
2018-03-27T04:46:57.824Z,52.30
2018-03-27T04:47:57.826Z,53.00
2018-03-27T04:48:57.823Z,52.60
2018-03-27T04:49:57.827Z,52.30
2018-03-27T04:50:57.825Z,53.70
2018-03-27T04:51:57.821Z,51.10
2018-03-27T04:52:57.817Z,51.50
2018-03-27T04:53:57.815Z,51.30
2018-03-27T04:54:57.950Z,53.80
2018-03-27T04:55:57.816Z,51.60
2018-03-27T04:56:57.820Z,51.20
2018-03-27T04:57:57.819Z,51.20
2018-03-27T04:58:57.819Z,53.70
2018-03-27T04:59:57.822Z,52.90
2018-03-27T05:00:57.830Z,53.50
2018-03-27T05:01:57.815Z,52.50
2018-03-27T05:02:57.809Z,51.70
2018-03-27T05:03:57.811Z,54.80
2018-03-27T05:04:57.827Z,52.80
2018-03-27T05:05:57.806Z,52.60
2018-03-27T05:06:57.820Z,53.80
2018-03-27T05:07:58.522Z,51.90
2018-03-27T05:08:57.805Z,52.70
2018-03-27T05:09:57.802Z,53.00
2018-03-27T05:10:57.815Z,53.60
2018-03-27T05:11:57.803Z,53.90
2018-03-27T05:12:57.801Z,52.40
2018-03-27T05:13:57.790Z,51.70
2018-03-27T05:14:57.798Z,50.70
2018-03-27T05:15:57.805Z,54.00
2018-03-27T05:16:57.806Z,53.20
2018-03-27T05:17:57.802Z,52.00
2018-03-27T05:18:58.516Z,54.60
2018-03-27T05:19:57.783Z,53.40
2018-03-27T05:20:58.514Z,53.20
2018-03-27T05:21:57.788Z,51.10
2018-03-27T05:22:57.793Z,52.10
2018-03-27T05:23:57.796Z,52.40
2018-03-27T05:24:57.792Z,52.50
2018-03-27T05:25:57.782Z,53.00
2018-03-27T05:26:57.790Z,54.00
2018-03-27T05:27:57.789Z,54.50
2018-03-27T05:28:57.839Z,55.20
2018-03-27T05:29:57.783Z,56.00
2018-03-27T05:30:57.790Z,54.80
2018-03-27T05:31:57.788Z,55.00
2018-03-27T05:32:57.783Z,55.30
2018-03-27T05:33:57.784Z,55.10
2018-03-27T05:34:57.785Z,53.90
2018-03-27T05:35:57.784Z,55.60
2018-03-27T05:36:57.789Z,54.30
2018-03-27T05:37:57.783Z,54.70
2018-03-27T05:38:57.783Z,53.50
2018-03-27T05:39:57.788Z,54.30
2018-03-27T05:40:57.777Z,52.10
2018-03-27T05:41:57.827Z,54.80
2018-03-27T05:42:57.797Z,54.20
2018-03-27T05:43:57.776Z,54.40
2018-03-27T05:44:57.775Z,53.30
2018-03-27T05:45:57.767Z,54.00
2018-03-27T05:46:57.771Z,53.90
2018-03-27T05:47:57.792Z,55.20
2018-03-27T05:48:57.779Z,55.30
2018-03-27T05:49:57.770Z,52.60
2018-03-27T05:50:57.775Z,52.40
2018-03-27T05:51:57.771Z,53.10
2018-03-27T05:52:57.753Z,53.10
2018-03-27T05:53:57.765Z,53.70
2018-03-27T05:54:57.770Z,52.60
2018-03-27T05:55:57.828Z,52.80
2018-03-27T05:56:57.758Z,51.50
2018-03-27T05:57:57.760Z,52.20
2018-03-27T05:58:57.770Z,52.80
2018-03-27T05:59:57.760Z,53.60
2018-03-27T06:00:57.807Z,50.70
2018-03-27T06:01:57.750Z,50.00
2018-03-27T06:02:57.754Z,53.50
2018-03-27T06:03:57.749Z,51.20
2018-03-27T06:04:57.756Z,51.90
2018-03-27T06:05:57.752Z,52.00
2018-03-27T06:06:57.738Z,49.60
2018-03-27T06:07:57.751Z,52.00
2018-03-27T06:08:57.748Z,53.70
2018-03-27T06:09:57.741Z,52.80
2018-03-27T06:10:57.763Z,51.20
2018-03-27T06:11:57.746Z,52.30
2018-03-27T06:12:57.734Z,50.60
2018-03-27T06:13:57.749Z,50.00
2018-03-27T06:14:57.753Z,51.00
2018-03-27T06:15:57.752Z,49.30
2018-03-27T06:16:57.745Z,50.20
2018-03-27T06:17:57.736Z,50.20
2018-03-27T06:18:57.736Z,47.30
2018-03-27T06:19:57.745Z,48.60
2018-03-27T06:20:57.759Z,49.20
2018-03-27T06:21:57.738Z,49.30
2018-03-27T06:22:58.524Z,48.90
2018-03-27T06:23:57.722Z,47.10
2018-03-27T06:24:57.743Z,48.20
2018-03-27T06:25:57.776Z,48.90
2018-03-27T06:26:57.743Z,48.10
2018-03-27T06:27:57.753Z,48.20
2018-03-27T06:28:57.723Z,48.00
2018-03-27T06:29:57.734Z,49.30
2018-03-27T06:30:58.080Z,48.30
2018-03-27T06:31:57.735Z,49.20
2018-03-27T06:32:57.808Z,49.50
2018-03-27T06:33:57.734Z,48.30
2018-03-27T06:34:57.724Z,46.50
2018-03-27T06:35:57.724Z,48.40
2018-03-27T06:36:57.727Z,47.90
2018-03-27T06:37:57.758Z,47.60
2018-03-27T06:38:57.728Z,48.00
2018-03-27T06:39:57.731Z,46.80
2018-03-27T06:40:57.725Z,47.30
2018-03-27T06:41:57.732Z,48.80
2018-03-27T06:42:57.718Z,45.70
2018-03-27T06:43:57.721Z,45.70
2018-03-27T06:44:57.719Z,45.60
2018-03-27T06:45:57.828Z,46.20
2018-03-27T06:46:57.744Z,46.80
2018-03-27T06:47:57.717Z,45.60
2018-03-27T06:48:57.742Z,44.30
2018-03-27T06:49:57.723Z,45.10
2018-03-27T06:50:57.730Z,45.10
2018-03-27T06:51:57.816Z,45.60
2018-03-27T06:52:57.727Z,46.80
2018-03-27T06:53:57.732Z,45.00
2018-03-27T06:54:57.736Z,44.70
2018-03-27T06:55:57.730Z,46.20
2018-03-27T06:56:57.727Z,45.40
2018-03-27T06:57:57.737Z,45.80
2018-03-27T06:58:57.799Z,44.00
2018-03-27T06:59:57.735Z,45.00
2018-03-27T07:00:57.735Z,46.20
2018-03-27T07:01:57.772Z,45.40
2018-03-27T07:02:57.744Z,45.00
2018-03-27T07:03:57.757Z,45.30
2018-03-27T07:04:57.776Z,45.40
2018-03-27T07:05:57.790Z,44.40
2018-03-27T07:06:57.737Z,44.60
2018-03-27T07:07:57.787Z,43.40
2018-03-27T07:08:57.734Z,43.10
2018-03-27T07:09:58.536Z,43.80
2018-03-27T07:10:57.754Z,44.50
2018-03-27T07:11:57.747Z,41.70
2018-03-27T07:12:57.756Z,44.30
2018-03-27T07:13:57.812Z,44.40
2018-03-27T07:14:57.772Z,44.20
2018-03-27T07:15:57.759Z,43.80
2018-03-27T07:16:57.762Z,42.80
2018-03-27T07:17:57.759Z,44.20
2018-03-27T07:18:57.766Z,56.70
2018-03-27T07:19:57.790Z,43.30
2018-03-27T07:20:57.768Z,43.90
2018-03-27T07:21:57.759Z,44.60
2018-03-27T07:22:57.764Z,45.30
2018-03-27T07:23:57.776Z,45.10
2018-03-27T07:24:57.766Z,44.80
2018-03-27T07:25:58.543Z,48.00
2018-03-27T07:26:57.823Z,48.50
2018-03-27T07:27:57.781Z,47.00
2018-03-27T07:28:57.791Z,47.50
2018-03-27T07:29:57.785Z,50.50
2018-03-27T07:30:57.796Z,49.50
2018-03-27T07:31:57.787Z,48.90
2018-03-27T07:32:57.807Z,48.20
2018-03-27T07:33:57.792Z,48.50
2018-03-27T07:34:57.800Z,50.50
2018-03-27T07:35:58.549Z,50.10
2018-03-27T07:36:57.808Z,51.10
2018-03-27T07:37:57.834Z,51.80
2018-03-27T07:38:58.546Z,51.30
2018-03-27T07:39:57.822Z,53.40
2018-03-27T07:40:57.818Z,53.90
2018-03-27T07:41:57.829Z,52.70
2018-03-27T07:42:57.833Z,53.60
2018-03-27T07:43:57.824Z,52.70
2018-03-27T07:44:57.829Z,53.80
2018-03-27T07:45:57.830Z,54.00
2018-03-27T07:46:57.929Z,53.60
2018-03-27T07:47:57.840Z,53.10
2018-03-27T07:48:57.838Z,50.50
2018-03-27T07:49:57.857Z,51.80
2018-03-27T07:50:57.863Z,50.10
2018-03-27T07:51:57.843Z,51.40
2018-03-27T07:52:57.893Z,53.40
2018-03-27T07:53:57.844Z,52.20
2018-03-27T07:54:57.886Z,51.40
2018-03-27T07:55:57.853Z,51.10
2018-03-27T07:56:57.861Z,50.70
2018-03-27T07:57:57.873Z,52.70
2018-03-27T07:58:57.883Z,53.10
2018-03-27T07:59:57.980Z,55.60
2018-03-27T08:00:57.878Z,56.00
2018-03-27T08:01:57.890Z,57.80
2018-03-27T08:02:57.896Z,59.80
2018-03-27T08:03:57.881Z,58.10
2018-03-27T08:04:57.881Z,59.70
2018-03-27T08:05:57.876Z,60.70
2018-03-27T08:06:57.900Z,66.70
2018-03-27T08:07:57.889Z,64.60
2018-03-27T08:08:57.933Z,67.80
2018-03-27T08:09:57.903Z,72.80
2018-03-27T08:10:57.957Z,71.30
2018-03-27T08:11:57.905Z,69.60
2018-03-27T08:12:58.563Z,72.20
2018-03-27T08:13:57.917Z,67.50
2018-03-27T08:14:57.916Z,69.30
2018-03-27T08:15:57.930Z,69.50
2018-03-27T08:16:57.920Z,68.90
2018-03-27T08:17:57.918Z,72.10
2018-03-27T08:18:57.928Z,71.40
2018-03-27T08:19:57.927Z,65.50
2018-03-27T08:20:57.985Z,64.40
2018-03-27T08:21:57.939Z,60.80
2018-03-27T08:22:57.947Z,55.10
2018-03-27T08:23:57.959Z,53.00
2018-03-27T08:24:57.938Z,54.20
2018-03-27T08:25:57.944Z,51.90
2018-03-27T08:26:57.946Z,52.20
2018-03-27T08:27:57.952Z,53.30
2018-03-27T08:28:57.964Z,52.60
2018-03-27T08:29:57.949Z,55.20
2018-03-27T08:30:58.564Z,55.80
2018-03-27T08:31:57.964Z,57.80
2018-03-27T08:32:57.966Z,57.60
2018-03-27T08:33:57.970Z,56.50
2018-03-27T08:34:57.968Z,53.60
2018-03-27T08:35:57.971Z,53.70
2018-03-27T08:36:57.979Z,55.00
2018-03-27T08:37:57.971Z,55.20
2018-03-27T08:38:57.983Z,51.80
2018-03-27T08:39:57.995Z,54.30
2018-03-27T08:40:57.993Z,55.10
2018-03-27T08:41:57.993Z,53.00
2018-03-27T08:42:57.988Z,53.70
2018-03-27T08:43:58.040Z,53.40
2018-03-27T08:44:58.011Z,53.30
2018-03-27T08:45:57.992Z,53.90
2018-03-27T08:46:57.985Z,52.60
2018-03-27T08:47:57.995Z,54.20
2018-03-27T08:48:58.007Z,58.10
2018-03-27T08:49:58.004Z,57.90
2018-03-27T08:50:58.018Z,55.30
2018-03-27T08:51:58.010Z,51.10
2018-03-27T08:52:58.007Z,52.20
2018-03-27T08:53:58.572Z,50.10
2018-03-27T08:54:58.007Z,51.30
2018-03-27T08:55:58.026Z,48.70
2018-03-27T08:56:58.027Z,52.30
2018-03-27T08:57:58.026Z,52.50
2018-03-27T08:58:58.027Z,49.60
2018-03-27T08:59:58.034Z,51.50
2018-03-27T09:00:58.029Z,49.80
2018-03-27T09:01:58.034Z,50.60
2018-03-27T09:02:58.036Z,51.00
2018-03-27T09:03:58.042Z,51.80
2018-03-27T09:04:58.038Z,50.90
2018-03-27T09:05:58.043Z,51.70
2018-03-27T09:06:58.283Z,54.30
2018-03-27T09:07:58.047Z,53.40
2018-03-27T09:08:58.095Z,52.40
2018-03-27T09:09:58.078Z,55.00
2018-03-27T09:10:58.106Z,52.70
2018-03-27T09:11:58.133Z,56.00
2018-03-27T09:12:58.147Z,56.30
2018-03-27T09:13:58.147Z,55.50
2018-03-27T09:14:58.116Z,55.20
2018-03-27T09:15:58.081Z,53.70
2018-03-27T09:16:58.092Z,54.50
2018-03-27T09:17:58.095Z,55.50
2018-03-27T09:18:58.093Z,54.80
2018-03-27T09:19:58.221Z,55.80
2018-03-27T09:20:58.101Z,55.60
2018-03-27T09:21:58.107Z,53.80
2018-03-27T09:22:58.115Z,55.40
2018-03-27T09:23:58.116Z,56.40
2018-03-27T09:24:58.110Z,57.60
2018-03-27T09:25:58.289Z,56.80
2018-03-27T09:26:58.158Z,58.10
2018-03-27T09:27:58.175Z,58.30
2018-03-27T09:28:58.154Z,56.20
2018-03-27T09:29:58.148Z,56.40
2018-03-27T09:30:58.163Z,56.90
2018-03-27T09:31:58.181Z,59.10
2018-03-27T09:32:58.164Z,57.00
2018-03-27T09:33:58.185Z,57.80
2018-03-27T09:34:58.185Z,58.10
2018-03-27T09:35:58.218Z,59.40
2018-03-27T09:36:58.198Z,57.50
2018-03-27T09:37:58.267Z,62.90
2018-03-27T09:38:58.221Z,61.80
2018-03-27T09:39:58.222Z,62.30
2018-03-27T09:40:58.240Z,65.80
2018-03-27T09:41:58.234Z,67.60
2018-03-27T09:42:58.241Z,65.80
2018-03-27T09:43:58.312Z,69.20
2018-03-27T09:44:58.256Z,66.50
2018-03-27T09:45:58.284Z,67.60
2018-03-27T09:46:58.277Z,68.60
2018-03-27T09:47:58.407Z,68.50
2018-03-27T09:48:58.287Z,71.10
2018-03-27T09:49:58.295Z,71.00
2018-03-27T09:50:58.332Z,72.20
2018-03-27T09:51:58.316Z,73.30
2018-03-27T09:52:58.339Z,75.10
2018-03-27T09:53:58.324Z,75.00
2018-03-27T09:54:58.344Z,73.90
2018-03-27T09:55:58.347Z,74.70
2018-03-27T09:56:58.354Z,76.60
2018-03-27T09:57:58.397Z,76.30
2018-03-27T09:58:58.680Z,75.40
2018-03-27T09:59:58.391Z,75.90
2018-03-27T10:00:58.411Z,74.50
2018-03-27T10:01:58.396Z,76.50
2018-03-27T10:02:58.412Z,75.20
2018-03-27T10:03:58.433Z,75.50
2018-03-27T10:04:58.420Z,75.40
2018-03-27T10:05:58.481Z,73.50
2018-03-27T10:06:58.452Z,71.30
2018-03-27T10:07:59.122Z,69.90
2018-03-27T10:08:58.477Z,71.50
2018-03-27T10:09:58.493Z,72.50
2018-03-27T10:10:58.542Z,72.30
2018-03-27T10:11:58.525Z,76.30
2018-03-27T10:12:58.514Z,70.70
2018-03-27T10:13:58.516Z,69.40
2018-03-27T10:14:58.534Z,71.40
2018-03-27T10:15:58.613Z,74.80
2018-03-27T10:16:58.555Z,71.10
2018-03-27T10:17:58.574Z,64.60
2018-03-27T10:18:58.578Z,66.90
2018-03-27T10:19:58.579Z,67.20
2018-03-27T10:20:58.593Z,67.10
2018-03-27T10:21:58.600Z,64.80
2018-03-27T10:22:58.615Z,66.80
2018-03-27T10:23:58.629Z,68.40
2018-03-27T10:24:58.658Z,59.60
2018-03-27T10:25:59.623Z,50.20
2018-03-27T10:26:58.665Z,47.40
2018-03-27T10:27:58.676Z,48.10
2018-03-27T10:28:58.711Z,51.00
2018-03-27T10:29:58.696Z,50.10
2018-03-27T10:30:58.707Z,48.80
2018-03-27T10:31:58.720Z,48.20
2018-03-27T10:32:58.743Z,47.10
2018-03-27T10:33:58.730Z,47.00
2018-03-27T10:34:58.761Z,46.70
2018-03-27T10:35:58.788Z,45.30
2018-03-27T10:36:58.766Z,43.80
2018-03-27T10:37:58.789Z,44.10
2018-03-27T10:38:58.796Z,42.40
2018-03-27T10:39:58.826Z,41.70
2018-03-27T10:40:58.823Z,38.90
2018-03-27T10:41:58.836Z,39.80
2018-03-27T10:42:58.849Z,41.20
2018-03-27T10:43:58.866Z,40.50
2018-03-27T10:44:58.864Z,38.60
2018-03-27T10:45:58.887Z,36.00
2018-03-27T10:46:58.894Z,35.30
2018-03-27T10:47:58.898Z,35.00
2018-03-27T10:48:58.934Z,34.30
2018-03-27T10:50:24.640Z,32.80
2018-03-27T10:50:58.934Z,31.30
2018-03-27T10:51:58.956Z,30.80
2018-03-27T10:52:58.956Z,31.40
2018-03-27T10:53:58.961Z,32.30
2018-03-27T10:54:58.978Z,32.70
2018-03-27T10:55:58.982Z,31.70
2018-03-27T10:56:58.990Z,32.90
2018-03-27T10:57:59.009Z,31.40
2018-03-27T10:58:59.010Z,26.90
2018-03-27T10:59:59.091Z,26.80
2018-03-27T11:00:59.640Z,27.00
2018-03-27T11:01:59.042Z,27.30
2018-03-27T11:02:59.060Z,28.20
2018-03-27T11:03:59.095Z,27.30
2018-03-27T11:04:59.081Z,27.10
2018-03-27T11:05:59.056Z,29.90
2018-03-27T11:06:59.071Z,33.60
2018-03-27T11:07:59.078Z,28.30
2018-03-27T11:08:59.087Z,40.80
2018-03-27T11:09:59.105Z,26.00
2018-03-27T11:10:59.107Z,24.50
2018-03-27T11:11:59.098Z,24.10
2018-03-27T11:12:59.112Z,23.80
2018-03-27T11:13:59.192Z,22.50
2018-03-27T11:14:59.122Z,22.60
2018-03-27T11:15:59.126Z,22.60
2018-03-27T11:16:59.122Z,21.10
2018-03-27T11:17:59.135Z,20.40
2018-03-27T11:18:59.154Z,20.00
2018-03-27T11:19:59.147Z,20.50
2018-03-27T11:20:59.150Z,20.00
2018-03-27T11:21:59.154Z,18.70
2018-03-27T11:22:59.160Z,19.40
2018-03-27T11:23:59.653Z,20.00
2018-03-27T11:24:59.161Z,19.50
2018-03-27T11:25:59.169Z,21.90
2018-03-27T11:26:59.187Z,20.30
2018-03-27T11:27:59.175Z,18.70
2018-03-27T11:28:59.185Z,19.70
2018-03-27T11:29:59.218Z,19.00
2018-03-27T11:30:59.198Z,18.30
2018-03-27T11:31:59.206Z,18.20
2018-03-27T11:32:59.210Z,18.00
2018-03-27T11:33:59.204Z,18.40
2018-03-27T11:34:59.206Z,18.00
2018-03-27T11:35:59.207Z,18.60
2018-03-27T11:36:59.210Z,18.70
2018-03-27T11:37:59.272Z,19.90
2018-03-27T11:38:59.244Z,19.30
2018-03-27T11:39:59.257Z,18.00
2018-03-27T11:40:59.232Z,19.10
2018-03-27T11:42:00.163Z,18.50
2018-03-27T11:42:59.245Z,18.30
2018-03-27T11:43:59.246Z,17.00
2018-03-27T11:45:00.165Z,17.00
2018-03-27T11:45:59.269Z,17.90
2018-03-27T11:46:59.324Z,16.70
2018-03-27T11:47:59.277Z,17.10
2018-03-27T11:48:59.374Z,17.50
2018-03-27T11:49:59.339Z,17.10
2018-03-27T11:50:59.325Z,17.20
2018-03-27T11:51:59.347Z,16.30
2018-03-27T11:52:59.509Z,16.80
2018-03-27T11:53:59.316Z,16.70
2018-03-27T11:54:59.307Z,17.60
2018-03-27T11:55:59.320Z,16.30
2018-03-27T11:57:59.310Z,16.80
2018-03-27T11:58:59.311Z,16.60
2018-03-27T11:59:59.503Z,15.70
2018-03-27T12:00:59.321Z,15.40
2018-03-27T12:01:59.330Z,14.30
2018-03-27T12:02:59.338Z,15.20
2018-03-27T12:03:59.344Z,14.90
2018-03-27T12:04:59.345Z,15.80
2018-03-27T12:05:59.353Z,15.60
2018-03-27T12:06:59.358Z,15.70
2018-03-27T12:07:59.357Z,16.40
2018-03-27T12:08:59.357Z,15.30
2018-03-27T12:09:59.357Z,14.60
2018-03-27T12:10:59.368Z,14.80
2018-03-27T12:11:59.357Z,14.60
2018-03-27T12:12:59.373Z,14.20
2018-03-27T12:13:59.371Z,14.40
2018-03-27T12:14:59.378Z,15.10
2018-03-27T12:15:59.380Z,14.00
2018-03-27T12:16:59.398Z,15.40
2018-03-27T12:17:59.443Z,15.10
2018-03-27T12:18:59.403Z,14.90
2018-03-27T12:19:59.390Z,14.60
2018-03-27T12:20:59.395Z,14.90
2018-03-27T12:21:59.394Z,13.90
2018-03-27T12:22:59.448Z,13.80
2018-03-27T12:23:59.403Z,15.00
2018-03-27T12:24:59.855Z,14.00
2018-03-27T12:25:59.412Z,14.10
2018-03-27T12:26:59.421Z,14.80
2018-03-27T12:27:59.425Z,14.80
2018-03-27T12:28:59.432Z,14.30
2018-03-27T12:29:59.441Z,13.90
2018-03-27T12:30:59.464Z,13.80
2018-03-27T12:31:59.455Z,14.50
2018-03-27T12:32:59.447Z,14.10
2018-03-27T12:33:59.444Z,14.70
2018-03-27T12:34:59.452Z,13.60
2018-03-27T12:35:59.549Z,13.60
2018-03-27T12:36:59.508Z,13.50
2018-03-27T12:37:59.466Z,14.00
2018-03-27T12:38:59.458Z,14.30
2018-03-27T12:39:59.464Z,14.40
2018-03-27T12:40:59.488Z,14.50
2018-03-27T12:41:59.502Z,14.40
2018-03-27T12:42:59.481Z,14.50
2018-03-27T12:43:59.469Z,13.90
2018-03-27T12:44:59.482Z,13.30
2018-03-27T12:46:00.220Z,13.70
2018-03-27T12:46:59.476Z,14.30
2018-03-27T12:47:59.489Z,13.80
2018-03-27T12:48:59.504Z,13.40
2018-03-27T12:49:59.513Z,13.20
2018-03-27T12:50:59.502Z,13.90
2018-03-27T12:51:59.495Z,13.10
2018-03-27T12:52:59.517Z,12.90
2018-03-27T12:53:59.546Z,12.30